createdAt,value
2018-10-12T00:01:08.688Z,67.60
2018-10-12T00:03:37.708Z,67.40
2018-10-12T00:06:06.633Z,67.70
2018-10-12T00:08:35.399Z,67.90
2018-10-12T00:11:04.096Z,68.00
2018-10-12T00:13:33.052Z,68.00
2018-10-12T00:16:01.749Z,67.90
2018-10-12T00:18:30.472Z,67.80
2018-10-12T00:20:59.174Z,68.50
2018-10-12T00:23:27.849Z,68.40
2018-10-12T00:25:56.530Z,68.50
2018-10-12T00:28:25.462Z,68.50
2018-10-12T00:30:54.331Z,68.40
2018-10-12T00:33:23.276Z,68.50
2018-10-12T00:35:52.111Z,68.40
2018-10-12T00:38:20.801Z,69.50
2018-10-12T00:40:49.484Z,68.70
2018-10-12T00:43:18.250Z,69.10
2018-10-12T00:45:47.115Z,68.90
2018-10-12T00:48:15.785Z,69.20
2018-10-12T00:50:44.453Z,69.10
2018-10-12T00:53:13.157Z,69.10
2018-10-12T00:55:41.811Z,69.10
2018-10-12T00:58:10.487Z,69.40
2018-10-12T01:00:39.183Z,69.20
2018-10-12T01:03:08.041Z,69.50
2018-10-12T01:05:36.738Z,69.70
2018-10-12T01:08:05.413Z,69.60
2018-10-12T01:10:34.125Z,69.80
2018-10-12T01:13:02.815Z,69.80
2018-10-12T01:15:31.479Z,69.90
2018-10-12T01:18:00.156Z,70.20
2018-10-12T01:20:28.867Z,70.90
2018-10-12T01:22:57.563Z,70.30
2018-10-12T01:25:26.267Z,70.40
2018-10-12T01:27:54.953Z,70.60
2018-10-12T01:30:24.991Z,70.60
2018-10-12T01:32:59.373Z,70.70
2018-10-12T01:35:28.055Z,70.50
2018-10-12T01:37:56.783Z,70.60
2018-10-12T01:40:25.434Z,70.70
2018-10-12T01:42:54.135Z,70.70
2018-10-12T01:45:22.857Z,70.90
2018-10-12T01:47:51.746Z,71.00
2018-10-12T01:50:20.589Z,71.20
2018-10-12T01:52:49.455Z,71.80
2018-10-12T01:55:18.407Z,71.20
2018-10-12T01:57:47.282Z,71.50
2018-10-12T02:00:16.146Z,71.40
2018-10-12T02:02:44.992Z,71.60
2018-10-12T02:05:13.864Z,71.90
2018-10-12T02:07:42.778Z,71.90
2018-10-12T02:10:11.548Z,72.10
2018-10-12T02:12:40.450Z,72.10
2018-10-12T02:15:09.352Z,72.20
2018-10-12T02:17:38.056Z,72.30
2018-10-12T02:20:07.044Z,72.40
2018-10-12T02:22:35.838Z,72.30
2018-10-12T02:25:04.722Z,73.00
2018-10-12T02:27:33.435Z,73.10
2018-10-12T02:30:02.129Z,73.10
2018-10-12T02:32:30.784Z,73.30
2018-10-12T02:34:59.473Z,73.60
2018-10-12T02:37:28.207Z,73.80
2018-10-12T02:39:56.896Z,74.00
2018-10-12T02:42:25.557Z,74.00
2018-10-12T02:44:54.219Z,74.30
2018-10-12T02:47:22.942Z,74.50
2018-10-12T02:49:51.615Z,74.70
2018-10-12T02:52:20.363Z,74.80
2018-10-12T02:54:49.063Z,75.10
2018-10-12T02:57:17.869Z,75.20
2018-10-12T02:59:46.791Z,75.30
2018-10-12T03:02:15.705Z,75.20
2018-10-12T03:04:44.564Z,75.20
2018-10-12T03:07:13.251Z,75.50
2018-10-12T03:09:41.975Z,75.80
2018-10-12T03:12:10.729Z,76.50
2018-10-12T03:14:39.424Z,76.00
2018-10-12T03:17:08.105Z,76.20
2018-10-12T03:19:37.121Z,76.50
2018-10-12T03:22:05.811Z,76.70
2018-10-12T03:24:34.509Z,76.70
2018-10-12T03:27:03.193Z,76.70
2018-10-12T03:29:31.871Z,76.70
2018-10-12T03:32:01.397Z,76.80
2018-10-12T03:34:30.100Z,77.00
2018-10-12T03:36:59.035Z,77.20
2018-10-12T03:39:27.744Z,77.20
2018-10-12T03:41:56.408Z,77.50
2018-10-12T03:44:25.108Z,77.40
2018-10-12T03:46:53.803Z,77.50
2018-10-12T03:49:22.500Z,77.60
2018-10-12T03:51:51.222Z,78.10
2018-10-12T03:54:19.865Z,78.00
2018-10-12T03:56:48.626Z,78.20
2018-10-12T03:59:17.334Z,78.40
2018-10-12T04:01:45.999Z,78.50
2018-10-12T04:04:14.682Z,78.30
2018-10-12T04:06:43.370Z,78.30
2018-10-12T04:09:12.046Z,78.00
2018-10-12T04:11:40.778Z,78.30
2018-10-12T04:14:09.517Z,78.60
2018-10-12T04:16:38.449Z,78.60
2018-10-12T04:19:07.917Z,78.70
2018-10-12T04:21:36.601Z,79.50
2018-10-12T04:24:05.300Z,78.80
2018-10-12T04:26:34.032Z,78.80
2018-10-12T04:29:02.749Z,78.80
2018-10-12T04:31:31.447Z,78.80
2018-10-12T04:34:00.175Z,78.70
2018-10-12T04:36:29.038Z,78.60
2018-10-12T04:40:34.967Z,78.70
2018-10-12T04:43:03.674Z,78.80
2018-10-12T04:45:32.461Z,78.70
2018-10-12T04:48:01.150Z,79.10
2018-10-12T04:50:29.839Z,78.70
2018-10-12T04:52:58.531Z,78.80
2018-10-12T04:55:28.683Z,79.00
2018-10-12T04:57:57.377Z,79.40
2018-10-12T05:00:26.044Z,79.70
2018-10-12T05:02:54.762Z,79.80
2018-10-12T05:05:23.493Z,80.30
2018-10-12T05:07:52.506Z,79.90
2018-10-12T05:10:21.269Z,80.50
2018-10-12T05:12:50.574Z,80.20
2018-10-12T05:15:19.432Z,80.30
2018-10-12T05:17:48.112Z,80.30
2018-10-12T05:20:16.908Z,80.30
2018-10-12T05:22:45.912Z,80.70
2018-10-12T05:25:14.708Z,80.50
2018-10-12T05:27:43.520Z,81.10
2018-10-12T05:30:12.340Z,80.30
2018-10-12T05:32:41.116Z,80.60
2018-10-12T05:35:09.907Z,80.60
2018-10-12T05:37:38.840Z,80.60
2018-10-12T05:40:07.537Z,80.90
2018-10-12T05:42:36.250Z,81.10
2018-10-12T05:45:05.005Z,81.30
2018-10-12T05:47:33.685Z,81.40
2018-10-12T05:50:04.991Z,81.50
2018-10-12T05:52:34.446Z,81.10
2018-10-12T05:55:03.365Z,81.40
2018-10-12T05:57:35.380Z,81.60
2018-10-12T06:00:04.450Z,81.50
2018-10-12T06:02:33.169Z,81.80
2018-10-12T06:05:01.894Z,81.80
2018-10-12T06:07:30.685Z,81.70
2018-10-12T06:09:59.440Z,82.30
2018-10-12T06:12:28.097Z,82.30
2018-10-12T06:14:56.803Z,82.40
2018-10-12T06:17:25.750Z,82.50
2018-10-12T06:19:54.593Z,82.80
2018-10-12T06:22:23.598Z,83.10
2018-10-12T06:24:52.779Z,82.70
2018-10-12T06:27:21.847Z,82.20
2018-10-12T06:29:50.537Z,82.90
2018-10-12T06:32:19.257Z,82.20
2018-10-12T06:34:47.931Z,82.10
2018-10-12T06:37:16.665Z,82.20
2018-10-12T06:39:45.413Z,82.70
2018-10-12T06:42:14.137Z,81.90
2018-10-12T06:44:42.848Z,82.20
2018-10-12T06:47:11.603Z,82.50
2018-10-12T06:49:40.350Z,82.20
2018-10-12T06:52:09.279Z,82.00
2018-10-12T06:54:38.028Z,82.20
2018-10-12T06:57:06.726Z,82.30
2018-10-12T06:59:35.460Z,81.80
2018-10-12T07:02:04.173Z,82.10
2018-10-12T07:04:32.862Z,81.80
2018-10-12T07:07:01.605Z,81.40
2018-10-12T07:09:30.309Z,81.40
2018-10-12T07:11:59.055Z,81.10
2018-10-12T07:14:27.737Z,81.40
2018-10-12T07:16:56.450Z,81.50
2018-10-12T07:19:25.240Z,81.10
2018-10-12T07:21:54.304Z,81.10
2018-10-12T07:24:22.610Z,81.00
2018-10-12T07:26:51.490Z,81.00
2018-10-12T07:29:20.161Z,80.60
2018-10-12T07:31:48.989Z,80.70
2018-10-12T07:34:17.733Z,80.90
2018-10-12T07:36:46.552Z,80.70
2018-10-12T07:39:15.219Z,80.70
2018-10-12T07:41:43.957Z,80.90
2018-10-12T07:44:12.681Z,80.80
2018-10-12T07:46:41.453Z,81.10
2018-10-12T07:49:10.172Z,80.90
2018-10-12T07:51:38.931Z,81.10
2018-10-12T07:54:07.621Z,81.10
2018-10-12T07:56:36.412Z,81.10
2018-10-12T07:59:05.101Z,81.20
2018-10-12T08:01:33.840Z,81.20
2018-10-12T08:04:02.584Z,81.10
2018-10-12T08:06:31.315Z,80.80
2018-10-12T08:08:59.983Z,80.80
2018-10-12T08:11:28.677Z,81.10
2018-10-12T08:13:57.456Z,81.10
2018-10-12T08:16:26.130Z,81.00
2018-10-12T08:18:55.203Z,81.20
2018-10-12T08:21:24.081Z,81.40
2018-10-12T08:23:53.045Z,81.30
2018-10-12T08:26:21.959Z,81.40
2018-10-12T08:28:50.925Z,80.60
2018-10-12T08:31:19.836Z,79.60
2018-10-12T08:33:48.845Z,79.30
2018-10-12T08:36:17.799Z,78.80
2018-10-12T08:38:46.763Z,79.00
2018-10-12T08:41:15.762Z,79.30
2018-10-12T08:43:44.567Z,79.50
2018-10-12T08:46:13.403Z,79.40
2018-10-12T08:48:42.355Z,78.80
2018-10-12T08:51:11.400Z,78.20
2018-10-12T08:53:40.362Z,78.20
2018-10-12T08:56:09.374Z,77.80
2018-10-12T08:58:38.380Z,77.90
2018-10-12T09:01:07.306Z,76.90
2018-10-12T09:03:36.411Z,76.60
2018-10-12T09:06:05.499Z,76.50
2018-10-12T09:08:34.389Z,76.20
2018-10-12T09:11:03.424Z,75.90
2018-10-12T09:13:32.305Z,76.00
2018-10-12T09:16:01.236Z,76.30
2018-10-12T09:18:30.042Z,75.70
2018-10-12T09:20:58.764Z,75.30
2018-10-12T09:23:27.484Z,75.50
2018-10-12T09:25:56.164Z,75.70
2018-10-12T09:28:24.888Z,75.20
2018-10-12T09:30:53.572Z,75.20
2018-10-12T09:33:22.248Z,75.60
2018-10-12T09:35:50.963Z,74.90
2018-10-12T09:38:19.631Z,74.00
2018-10-12T09:40:48.324Z,73.40
2018-10-12T09:43:17.097Z,73.70
2018-10-12T09:45:45.754Z,73.60
2018-10-12T09:48:14.529Z,73.30
2018-10-12T09:50:43.579Z,72.50
2018-10-12T09:53:12.074Z,73.30
2018-10-12T09:55:40.790Z,72.40
2018-10-12T09:58:09.538Z,72.30
2018-10-12T10:00:43.720Z,71.60
2018-10-12T10:03:17.658Z,72.40
2018-10-12T10:05:46.458Z,72.30
2018-10-12T10:08:15.260Z,72.20
2018-10-12T10:10:43.924Z,72.00
2018-10-12T10:13:12.677Z,71.70
2018-10-12T10:15:41.392Z,70.20
2018-10-12T10:18:10.145Z,69.40
2018-10-12T10:20:38.869Z,68.50
2018-10-12T10:23:07.582Z,68.10
2018-10-12T10:25:36.280Z,67.30
2018-10-12T10:28:05.159Z,66.30
2018-10-12T10:30:33.863Z,66.10
2018-10-12T10:33:02.571Z,64.80
2018-10-12T10:35:31.297Z,64.90
2018-10-12T10:38:00.032Z,63.20
2018-10-12T10:40:28.807Z,63.80
2018-10-12T10:42:57.626Z,62.10
2018-10-12T10:45:26.432Z,61.20
2018-10-12T10:47:55.116Z,60.00
2018-10-12T10:50:23.947Z,58.90
2018-10-12T10:52:52.535Z,58.10
2018-10-12T10:55:21.238Z,57.60
2018-10-12T10:57:49.996Z,55.40
2018-10-12T11:00:18.706Z,55.90
2018-10-12T11:02:47.523Z,54.20
2018-10-12T11:05:16.239Z,55.70
2018-10-12T11:07:44.922Z,54.20
2018-10-12T11:10:13.632Z,53.40
2018-10-12T11:12:42.355Z,51.90
2018-10-12T11:15:11.052Z,52.30
2018-10-12T11:17:39.720Z,50.80
2018-10-12T11:20:08.458Z,50.30
2018-10-12T11:22:37.284Z,50.00
2018-10-12T11:25:06.017Z,50.70
2018-10-12T11:27:34.778Z,51.50
2018-10-12T11:30:03.464Z,53.30
2018-10-12T11:32:32.276Z,54.70
2018-10-12T11:35:01.189Z,56.30
2018-10-12T11:37:30.315Z,57.00
2018-10-12T11:39:59.328Z,57.50
2018-10-12T11:42:39.624Z,57.80
2018-10-12T11:45:08.755Z,58.10
2018-10-12T11:47:37.834Z,58.80
2018-10-12T11:50:06.693Z,59.20
2018-10-12T11:52:35.654Z,59.20
2018-10-12T11:55:04.720Z,60.10
2018-10-12T11:57:33.414Z,59.80
2018-10-12T12:00:02.113Z,60.00
2018-10-12T12:02:30.851Z,60.30
2018-10-12T12:04:59.557Z,60.30
2018-10-12T12:07:28.246Z,60.30
2018-10-12T12:09:57.088Z,60.40
2018-10-12T12:12:25.743Z,60.70
2018-10-12T12:14:54.539Z,60.10
2018-10-12T12:17:23.209Z,60.80
2018-10-12T12:19:51.971Z,61.00
2018-10-12T12:22:20.660Z,61.00
2018-10-12T12:24:49.358Z,60.50
2018-10-12T12:27:18.042Z,60.50
2018-10-12T12:29:46.733Z,60.50
2018-10-12T12:32:15.507Z,59.90
2018-10-12T12:34:44.315Z,59.30
2018-10-12T12:37:13.237Z,59.60
2018-10-12T12:39:42.005Z,60.20
2018-10-12T12:42:11.114Z,59.80
2018-10-12T12:44:40.221Z,59.20
2018-10-12T12:47:08.982Z,59.40
2018-10-12T12:49:37.710Z,59.40
2018-10-12T12:52:06.476Z,58.20
2018-10-12T12:54:35.197Z,58.50
2018-10-12T12:57:03.903Z,58.60
2018-10-12T12:59:32.628Z,59.60
2018-10-12T13:02:01.311Z,58.80
2018-10-12T13:04:30.058Z,58.60
2018-10-12T13:06:58.810Z,58.80
2018-10-12T13:09:27.476Z,59.00
2018-10-12T13:11:56.214Z,59.70
2018-10-12T13:14:24.905Z,59.50
2018-10-12T13:16:53.625Z,59.30
2018-10-12T13:19:22.282Z,59.90
2018-10-12T13:21:51.181Z,59.90
2018-10-12T13:24:19.874Z,59.60
2018-10-12T13:26:48.533Z,60.10
2018-10-12T13:29:17.238Z,60.30
2018-10-12T13:31:45.970Z,60.60
2018-10-12T13:34:14.695Z,60.40
2018-10-12T13:36:43.465Z,60.60
2018-10-12T13:39:13.117Z,60.90
2018-10-12T13:41:41.841Z,60.20
2018-10-12T13:44:10.581Z,60.10
2018-10-12T13:46:39.345Z,60.00
2018-10-12T13:49:08.059Z,59.70
2018-10-12T13:51:36.789Z,59.60
2018-10-12T13:54:05.593Z,59.90
2018-10-12T13:56:34.257Z,59.50
2018-10-12T13:59:02.924Z,59.70
2018-10-12T14:01:31.693Z,58.90
2018-10-12T14:04:00.382Z,58.40
2018-10-12T14:06:29.125Z,58.50
2018-10-12T14:08:57.902Z,58.20
2018-10-12T14:11:26.716Z,58.00
2018-10-12T14:13:55.401Z,57.90
2018-10-12T14:16:24.084Z,58.10
2018-10-12T14:18:52.935Z,58.00
2018-10-12T14:21:21.517Z,57.70
2018-10-12T14:23:50.196Z,58.30
2018-10-12T14:26:18.911Z,57.80
2018-10-12T14:28:47.674Z,57.30
2018-10-12T14:31:16.386Z,58.00
2018-10-12T14:33:45.071Z,58.40
2018-10-12T14:36:13.797Z,57.90
2018-10-12T14:38:42.597Z,57.50
2018-10-12T14:41:11.271Z,59.10
2018-10-12T14:43:39.978Z,58.00
2018-10-12T14:46:08.705Z,58.30
2018-10-12T14:48:37.448Z,57.40
2018-10-12T14:51:06.888Z,57.90
2018-10-12T14:53:35.699Z,59.60
2018-10-12T14:56:04.276Z,58.70
2018-10-12T14:58:33.068Z,58.30
2018-10-12T15:01:01.756Z,58.50
2018-10-12T15:03:30.438Z,58.60
2018-10-12T15:05:59.196Z,58.70
2018-10-12T15:08:27.870Z,58.80
2018-10-12T15:10:56.584Z,58.20
2018-10-12T15:13:25.280Z,58.00
2018-10-12T15:15:53.964Z,57.60
2018-10-12T15:18:22.633Z,57.90
2018-10-12T15:20:51.350Z,58.40
2018-10-12T15:23:20.029Z,57.80
2018-10-12T15:25:48.803Z,58.00
2018-10-12T15:28:17.507Z,58.80
2018-10-12T15:30:46.193Z,59.00
2018-10-12T15:33:14.923Z,59.30
2018-10-12T15:35:43.698Z,59.20
2018-10-12T15:38:12.451Z,59.90
2018-10-12T15:40:41.217Z,60.10
2018-10-12T15:43:09.986Z,59.80
2018-10-12T15:45:38.645Z,60.30
2018-10-12T15:48:07.797Z,59.50
2018-10-12T15:50:36.899Z,59.40
2018-10-12T15:53:05.937Z,60.10
2018-10-12T15:55:34.845Z,60.30
2018-10-12T15:58:03.535Z,61.30
2018-10-12T16:00:33.256Z,61.30
2018-10-12T16:03:02.161Z,61.80
2018-10-12T16:05:30.898Z,62.00
2018-10-12T16:08:00.099Z,62.20
2018-10-12T16:10:28.769Z,62.60
2018-10-12T16:12:57.445Z,62.90
2018-10-12T16:15:26.207Z,63.20
2018-10-12T16:17:54.857Z,63.60
2018-10-12T16:20:24.288Z,64.00
2018-10-12T16:22:53.355Z,64.30
2018-10-12T16:26:06.105Z,64.50
2018-10-12T16:28:34.785Z,64.80
2018-10-12T16:31:03.467Z,65.10
2018-10-12T16:33:32.160Z,65.20
2018-10-12T16:36:00.953Z,65.50
2018-10-12T16:38:29.563Z,65.80
2018-10-12T16:40:58.341Z,65.80
2018-10-12T16:43:27.007Z,66.20
2018-10-12T16:45:55.690Z,66.70
2018-10-12T16:48:24.375Z,66.80
2018-10-12T16:50:53.088Z,67.00
2018-10-12T16:53:21.792Z,66.90
2018-10-12T16:55:50.486Z,67.50
2018-10-12T16:58:19.258Z,67.70
2018-10-12T17:00:47.856Z,68.00
2018-10-12T17:03:16.586Z,68.30
2018-10-12T17:05:45.296Z,69.00
2018-10-12T17:08:14.118Z,68.90
2018-10-12T17:10:42.801Z,69.20
2018-10-12T17:13:11.514Z,69.50
2018-10-12T17:15:40.212Z,69.50
2018-10-12T17:18:09.293Z,69.80
2018-10-12T17:20:38.290Z,71.10
2018-10-12T17:23:07.310Z,70.30
2018-10-12T17:25:36.192Z,70.50
2018-10-12T17:28:05.079Z,70.70
2018-10-12T17:30:33.881Z,71.00
2018-10-12T17:33:02.557Z,71.30
2018-10-12T17:35:31.293Z,71.20
2018-10-12T17:38:00.021Z,71.30
2018-10-12T17:40:28.749Z,71.40
2018-10-12T17:42:57.509Z,71.80
2018-10-12T17:45:26.193Z,71.80
2018-10-12T17:47:54.903Z,72.20
2018-10-12T17:50:23.665Z,72.20
2018-10-12T17:52:52.614Z,72.20
2018-10-12T17:55:21.269Z,72.10
2018-10-12T17:57:49.983Z,72.00
2018-10-12T18:00:18.798Z,72.30
2018-10-12T18:02:47.379Z,72.50
2018-10-12T18:05:16.145Z,72.60
2018-10-12T18:07:44.867Z,72.60
2018-10-12T18:10:13.521Z,72.50
2018-10-12T18:12:42.267Z,72.70
2018-10-12T18:15:11.889Z,73.00
2018-10-12T18:17:40.903Z,73.00
2018-10-12T18:20:10.533Z,73.20
2018-10-12T18:22:39.265Z,72.70
2018-10-12T18:25:08.033Z,73.20
2018-10-12T18:27:36.977Z,73.20
2018-10-12T18:30:05.791Z,73.40
2018-10-12T18:32:34.490Z,73.30
2018-10-12T18:35:03.189Z,73.40
2018-10-12T18:37:31.896Z,73.40
2018-10-12T18:40:00.633Z,73.40
2018-10-12T18:42:29.342Z,73.40
2018-10-12T18:44:58.027Z,73.40
2018-10-12T18:47:26.733Z,73.60
2018-10-12T18:49:55.482Z,73.60
2018-10-12T18:52:24.248Z,73.80
2018-10-12T18:54:52.958Z,73.50
2018-10-12T18:57:21.656Z,74.10
2018-10-12T18:59:50.404Z,73.50
2018-10-12T19:02:19.036Z,73.40
2018-10-12T19:04:47.806Z,73.40
2018-10-12T19:07:16.486Z,73.40
2018-10-12T19:09:45.196Z,73.30
2018-10-12T19:12:13.922Z,73.30
2018-10-12T19:14:42.720Z,72.20
2018-10-12T19:17:11.386Z,71.70
2018-10-12T19:19:40.127Z,72.10
2018-10-12T19:22:08.788Z,71.70
2018-10-12T19:24:37.478Z,72.00
2018-10-12T19:27:06.562Z,72.00
2018-10-12T19:29:35.477Z,72.00
2018-10-12T19:32:04.491Z,71.90
2018-10-12T19:34:33.413Z,72.60
2018-10-12T19:37:02.242Z,72.00
2018-10-12T19:39:30.975Z,71.30
2018-10-12T19:41:59.711Z,72.20
2018-10-12T19:44:28.435Z,71.60
2018-10-12T19:46:57.437Z,71.60
2018-10-12T19:49:26.329Z,71.20
2018-10-12T19:51:55.283Z,70.90
2018-10-12T19:54:24.133Z,70.80
2018-10-12T19:56:53.023Z,70.90
2018-10-12T19:59:21.951Z,70.80
2018-10-12T20:01:50.819Z,71.10
2018-10-12T20:04:19.570Z,71.20
2018-10-12T20:06:48.431Z,71.20
2018-10-12T20:09:17.361Z,70.80
2018-10-12T20:11:46.285Z,71.00
2018-10-12T20:14:15.077Z,70.80
2018-10-12T20:16:43.783Z,70.50
2018-10-12T20:19:12.519Z,70.70
2018-10-12T20:21:41.214Z,70.70
2018-10-12T20:24:09.940Z,70.90
2018-10-12T20:26:38.651Z,70.80
2018-10-12T20:29:07.490Z,71.30
2018-10-12T20:31:36.305Z,71.30
2018-10-12T20:34:04.929Z,71.60
2018-10-12T20:36:33.689Z,71.50
2018-10-12T20:39:02.484Z,71.80
2018-10-12T20:41:31.163Z,72.00
2018-10-12T20:43:59.848Z,72.10
2018-10-12T20:46:28.608Z,72.00
2018-10-12T20:48:57.288Z,71.90
2018-10-12T20:51:25.975Z,71.70
2018-10-12T20:53:54.658Z,71.50
2018-10-12T20:56:23.342Z,71.60
2018-10-12T20:58:52.132Z,71.60
2018-10-12T21:01:20.918Z,71.60
2018-10-12T21:03:49.650Z,71.30
2018-10-12T21:06:18.320Z,71.60
2018-10-12T21:08:47.020Z,71.60
2018-10-12T21:11:15.713Z,71.70
2018-10-12T21:13:44.374Z,71.70
2018-10-12T21:16:13.139Z,71.70
2018-10-12T21:18:41.938Z,71.60
2018-10-12T21:21:10.663Z,71.60
2018-10-12T21:23:39.332Z,71.60
2018-10-12T21:26:08.036Z,71.90
2018-10-12T21:28:36.748Z,71.70
2018-10-12T21:31:05.464Z,72.00
2018-10-12T21:33:34.146Z,72.10
2018-10-12T21:36:02.837Z,72.10
2018-10-12T21:38:31.525Z,72.10
2018-10-12T21:41:00.235Z,72.00
2018-10-12T21:43:28.933Z,72.20
2018-10-12T21:45:57.607Z,72.10
2018-10-12T21:48:26.358Z,72.00
2018-10-12T21:50:55.144Z,72.30
2018-10-12T21:53:23.835Z,72.90
2018-10-12T21:55:52.541Z,72.30
2018-10-12T21:58:21.493Z,72.40
2018-10-12T22:00:55.435Z,72.50
2018-10-12T22:03:24.143Z,72.80
2018-10-12T22:05:52.833Z,72.90
2018-10-12T22:08:26.889Z,72.90
2018-10-12T22:10:55.571Z,73.00
2018-10-12T22:13:24.227Z,72.20
2018-10-12T22:15:52.920Z,72.80
2018-10-12T22:18:21.649Z,72.90
2018-10-12T22:20:50.420Z,73.10
2018-10-12T22:23:19.106Z,73.30
2018-10-12T22:25:47.845Z,73.50
2018-10-12T22:28:16.537Z,73.20
2018-10-12T22:30:45.266Z,73.50
2018-10-12T22:33:14.106Z,73.60
2018-10-12T22:35:42.604Z,73.50
2018-10-12T22:38:11.280Z,73.50
2018-10-12T22:40:39.964Z,73.50
2018-10-12T22:43:08.642Z,73.50
2018-10-12T22:45:37.324Z,73.70
2018-10-12T22:48:06.809Z,74.00
2018-10-12T22:50:36.925Z,74.30
2018-10-12T22:53:06.653Z,74.10
2018-10-12T22:55:35.912Z,74.30
2018-10-12T22:58:04.573Z,74.40
2018-10-12T23:00:34.223Z,74.50
2018-10-12T23:03:03.001Z,74.50
2018-10-12T23:05:31.800Z,74.70
2018-10-12T23:08:00.520Z,74.80
2018-10-12T23:10:29.207Z,74.50
2018-10-12T23:12:58.162Z,74.50
2018-10-12T23:15:27.031Z,74.40
2018-10-12T23:17:55.731Z,74.40
2018-10-12T23:20:24.534Z,74.20
2018-10-12T23:22:53.252Z,74.10
2018-10-12T23:25:21.940Z,74.10
2018-10-12T23:27:50.638Z,74.40
2018-10-12T23:30:19.349Z,74.60
2018-10-12T23:32:48.073Z,74.70
2018-10-12T23:35:16.720Z,74.80
2018-10-12T23:37:45.421Z,75.10
2018-10-12T23:40:14.107Z,75.40
2018-10-12T23:42:42.771Z,75.60
2018-10-12T23:45:11.479Z,75.60
2018-10-12T23:47:40.127Z,75.70
2018-10-12T23:50:08.809Z,76.70
2018-10-12T23:52:37.492Z,76.20
2018-10-12T23:55:06.177Z,76.10
2018-10-12T23:57:34.993Z,76.10
